sensor_id;sensor_type;location;lat;lon;timestamp;pressure;altitude;pressure_sealevel;temperature;humidity
74708;BME280;63360;50.104;8.074;2023-04-03T00:00:49;98148.63;;;1.20;100.00
74708;BME280;63360;50.104;8.074;2023-04-03T00:03:17;98160.81;;;1.25;100.00
74708;BME280;63360;50.104;8.074;2023-04-03T00:05:44;98154.09;;;1.23;100.00
74708;BME280;63360;50.104;8.074;2023-04-03T00:08:11;98141.97;;;1.19;100.00
74708;BME280;63360;50.104;8.074;2023-04-03T00:10:38;98146.41;;;1.23;100.00
74708;BME280;63360;50.104;8.074;2023-04-03T00:13:05;98156.66;;;1.23;100.00
74708;BME280;63360;50.104;8.074;2023-04-03T00:15:34;98156.91;;;1.22;100.00
74708;BME280;63360;50.104;8.074;2023-04-03T00:18:00;98154.00;;;1.18;100.00
74708;BME280;63360;50.104;8.074;2023-04-03T00:20:27;98154.22;;;1.17;99.10
74708;BME280;63360;50.104;8.074;2023-04-03T00:22:54;98149.19;;;1.10;100.00
74708;BME280;63360;50.104;8.074;2023-04-03T00:25:21;98161.31;;;1.15;100.00
74708;BME280;63360;50.104;8.074;2023-04-03T00:27:47;98144.84;;;1.11;100.00
74708;BME280;63360;50.104;8.074;2023-04-03T00:30:16;98144.50;;;1.07;100.00
74708;BME280;63360;50.104;8.074;2023-04-03T00:32:43;98156.44;;;1.13;100.00
74708;BME280;63360;50.104;8.074;2023-04-03T00:35:09;98152.28;;;1.12;100.00
74708;BME280;63360;50.104;8.074;2023-04-03T00:37:36;98136.69;;;1.02;100.00
74708;BME280;63360;50.104;8.074;2023-04-03T00:40:04;98147.06;;;1.07;100.00
74708;BME280;63360;50.104;8.074;2023-04-03T00:42:31;98163.88;;;1.15;100.00
74708;BME280;63360;50.104;8.074;2023-04-03T00:47:24;98156.78;;;1.17;99.55
74708;BME280;63360;50.104;8.074;2023-04-03T00:49:51;98157.66;;;1.22;98.89
74708;BME280;63360;50.104;8.074;2023-04-03T00:52:21;98146.31;;;1.18;100.00
74708;BME280;63360;50.104;8.074;2023-04-03T00:54:51;98152.22;;;1.31;97.15
74708;BME280;63360;50.104;8.074;2023-04-03T00:57:21;98151.09;;;1.27;96.55
74708;BME280;63360;50.104;8.074;2023-04-03T00:59:54;98154.66;;;1.26;98.22
74708;BME280;63360;50.104;8.074;2023-04-03T01:02:21;98146.41;;;1.23;98.28
74708;BME280;63360;50.104;8.074;2023-04-03T01:04:48;98148.19;;;1.23;97.49
74708;BME280;63360;50.104;8.074;2023-04-03T01:07:27;98136.84;;;1.19;96.29
74708;BME280;63360;50.104;8.074;2023-04-03T01:09:57;98147.31;;;1.29;95.34
74708;BME280;63360;50.104;8.074;2023-04-03T01:12:26;98150.31;;;1.26;96.08
74708;BME280;63360;50.104;8.074;2023-04-03T01:14:55;98142.88;;;1.25;95.68
74708;BME280;63360;50.104;8.074;2023-04-03T01:20:23;98144.31;;;1.32;95.76
74708;BME280;63360;50.104;8.074;2023-04-03T01:28:05;98145.00;;;1.28;96.36
74708;BME280;63360;50.104;8.074;2023-04-03T01:33:27;98139.41;;;1.31;96.70
74708;BME280;63360;50.104;8.074;2023-04-03T01:35:53;98153.22;;;1.30;97.58
74708;BME280;63360;50.104;8.074;2023-04-03T01:38:20;98146.31;;;1.18;96.85
74708;BME280;63360;50.104;8.074;2023-04-03T01:40:46;98144.72;;;1.17;97.47
74708;BME280;63360;50.104;8.074;2023-04-03T01:43:13;98143.84;;;1.23;96.98
74708;BME280;63360;50.104;8.074;2023-04-03T01:45:39;98131.81;;;1.12;97.90
74708;BME280;63360;50.104;8.074;2023-04-03T01:48:05;98138.50;;;1.13;98.75
74708;BME280;63360;50.104;8.074;2023-04-03T01:50:32;98131.38;;;1.15;99.27
74708;BME280;63360;50.104;8.074;2023-04-03T01:52:58;98140.06;;;1.26;99.48
74708;BME280;63360;50.104;8.074;2023-04-03T01:55:25;98145.00;;;1.28;99.58
74708;BME280;63360;50.104;8.074;2023-04-03T01:57:51;98144.22;;;1.27;98.32
74708;BME280;63360;50.104;8.074;2023-04-03T02:00:18;98138.53;;;1.25;98.43
74708;BME280;63360;50.104;8.074;2023-04-03T02:02:44;98148.09;;;1.30;99.27
74708;BME280;63360;50.104;8.074;2023-04-03T02:05:11;98144.75;;;1.29;97.04
74708;BME280;63360;50.104;8.074;2023-04-03T02:07:37;98151.34;;;1.37;97.17
74708;BME280;63360;50.104;8.074;2023-04-03T02:10:04;98159.03;;;1.37;96.66
74708;BME280;63360;50.104;8.074;2023-04-03T02:12:30;98148.09;;;1.30;96.92
74708;BME280;63360;50.104;8.074;2023-04-03T02:14:57;98141.53;;;1.34;97.54
74708;BME280;63360;50.104;8.074;2023-04-03T02:17:23;98158.25;;;1.36;97.79
74708;BME280;63360;50.104;8.074;2023-04-03T02:19:49;98129.16;;;1.31;96.91
74708;BME280;63360;50.104;8.074;2023-04-03T02:22:16;98140.09;;;1.38;97.17
74708;BME280;63360;50.104;8.074;2023-04-03T02:24:42;98142.66;;;1.38;97.98
74708;BME280;63360;50.104;8.074;2023-04-03T02:27:09;98129.72;;;1.33;97.48
74708;BME280;63360;50.104;8.074;2023-04-03T02:29:35;98136.41;;;1.34;97.54
74708;BME280;63360;50.104;8.074;2023-04-03T02:32:02;98133.03;;;1.33;98.17
74708;BME280;63360;50.104;8.074;2023-04-03T02:34:28;98133.72;;;1.29;96.70
74708;BME280;63360;50.104;8.074;2023-04-03T02:36:54;98138.88;;;1.40;98.71
74708;BME280;63360;50.104;8.074;2023-04-03T02:39:21;98137.53;;;1.38;95.73
74708;BME280;63360;50.104;8.074;2023-04-03T02:41:47;98136.75;;;1.37;96.87
74708;BME280;63360;50.104;8.074;2023-04-03T02:44:14;98138.16;;;1.33;98.02
74708;BME280;63360;50.104;8.074;2023-04-03T02:46:40;98131.50;;;1.32;97.06
74708;BME280;63360;50.104;8.074;2023-04-03T02:49:07;98143.22;;;1.40;96.50
74708;BME280;63360;50.104;8.074;2023-04-03T02:51:33;98137.41;;;1.33;96.32
74708;BME280;63360;50.104;8.074;2023-04-03T02:54:00;98139.75;;;1.34;95.26
74708;BME280;63360;50.104;8.074;2023-04-03T02:56:27;98142.22;;;1.41;96.61
74708;BME280;63360;50.104;8.074;2023-04-03T02:58:53;98148.00;;;1.48;98.82
74708;BME280;63360;50.104;8.074;2023-04-03T03:01:20;98129.06;;;1.49;93.18
74708;BME280;63360;50.104;8.074;2023-04-03T03:03:46;98138.66;;;1.53;93.28
74708;BME280;63360;50.104;8.074;2023-04-03T03:06:15;98133.97;;;1.50;92.36
74708;BME280;63360;50.104;8.074;2023-04-03T03:08:42;98135.28;;;1.53;97.15
74708;BME280;63360;50.104;8.074;2023-04-03T03:11:09;98136.09;;;1.53;98.57
74708;BME280;63360;50.104;8.074;2023-04-03T03:13:36;98145.00;;;1.51;97.04
74708;BME280;63360;50.104;8.074;2023-04-03T03:16:04;98143.13;;;1.46;97.13
74708;BME280;63360;50.104;8.074;2023-04-03T03:18:31;98144.56;;;1.54;96.58
74708;BME280;63360;50.104;8.074;2023-04-03T03:20:58;98143.44;;;1.50;94.25
74708;BME280;63360;50.104;8.074;2023-04-03T03:23:26;98136.06;;;1.42;93.49
74708;BME280;63360;50.104;8.074;2023-04-03T03:25:56;98150.34;;;1.49;94.22
74708;BME280;63360;50.104;8.074;2023-04-03T03:28:23;98134.84;;;1.44;95.25
74708;BME280;63360;50.104;8.074;2023-04-03T03:30:49;98139.75;;;1.46;96.33
74708;BME280;63360;50.104;8.074;2023-04-03T03:33:16;98139.31;;;1.49;95.57
74708;BME280;63360;50.104;8.074;2023-04-03T03:35:43;98147.78;;;1.49;95.18
74708;BME280;63360;50.104;8.074;2023-04-03T03:38:10;98152.03;;;1.55;94.63
74708;BME280;63360;50.104;8.074;2023-04-03T03:40:37;98142.63;;;1.49;94.56
74708;BME280;63360;50.104;8.074;2023-04-03T03:43:03;98153.81;;;1.66;92.87
74708;BME280;63360;50.104;8.074;2023-04-03T03:45:30;98140.09;;;1.61;94.96
74708;BME280;63360;50.104;8.074;2023-04-03T03:47:57;98152.81;;;1.67;93.08
74708;BME280;63360;50.104;8.074;2023-04-03T03:50:24;98148.56;;;1.73;96.39
74708;BME280;63360;50.104;8.074;2023-04-03T03:52:50;98141.66;;;1.62;94.31
74708;BME280;63360;50.104;8.074;2023-04-03T03:55:17;98143.44;;;1.61;94.85
74708;BME280;63360;50.104;8.074;2023-04-03T03:57:43;98131.06;;;1.58;92.97
74708;BME280;63360;50.104;8.074;2023-04-03T04:00:10;98136.28;;;1.52;94.97
74708;BME280;63360;50.104;8.074;2023-04-03T04:02:37;98144.53;;;1.65;94.41
74708;BME280;63360;50.104;8.074;2023-04-03T04:05:04;98147.00;;;1.60;96.58
74708;BME280;63360;50.104;8.074;2023-04-03T04:07:30;98151.47;;;1.53;96.69
74708;BME280;63360;50.104;8.074;2023-04-03T04:09:56;98149.00;;;1.58;97.81
74708;BME280;63360;50.104;8.074;2023-04-03T04:12:23;98155.91;;;1.58;96.35
74708;BME280;63360;50.104;8.074;2023-04-03T04:14:49;98139.97;;;1.44;96.85
74708;BME280;63360;50.104;8.074;2023-04-03T04:17:16;98154.03;;;1.53;96.83
74708;BME280;63360;50.104;8.074;2023-04-03T04:19:42;98153.69;;;1.50;96.18
74708;BME280;63360;50.104;8.074;2023-04-03T04:22:08;98155.25;;;1.51;96.22
74708;BME280;63360;50.104;8.074;2023-04-03T04:24:35;98143.22;;;1.40;96.79
74708;BME280;63360;50.104;8.074;2023-04-03T04:27:04;98145.41;;;1.36;96.42
74708;BME280;63360;50.104;8.074;2023-04-03T04:29:30;98152.34;;;1.36;97.10
74708;BME280;63360;50.104;8.074;2023-04-03T04:32:04;98145.09;;;1.33;97.06
74708;BME280;63360;50.104;8.074;2023-04-03T04:34:31;98148.22;;;1.35;93.58
74708;BME280;63360;50.104;8.074;2023-04-03T04:36:57;98145.09;;;1.33;94.39
74708;BME280;63360;50.104;8.074;2023-04-03T04:39:24;98147.66;;;1.33;94.32
74708;BME280;63360;50.104;8.074;2023-04-03T04:41:50;98143.19;;;1.16;93.69
74708;BME280;63360;50.104;8.074;2023-04-03T04:44:17;98145.16;;;1.14;91.71
74708;BME280;63360;50.104;8.074;2023-04-03T04:46:44;98138.69;;;1.12;91.95
74708;BME280;63360;50.104;8.074;2023-04-03T04:49:10;98155.22;;;1.16;94.15
74708;BME280;63360;50.104;8.074;2023-04-03T04:51:37;98147.41;;;1.11;93.36
74708;BME280;63360;50.104;8.074;2023-04-03T04:54:16;98161.00;;;1.11;93.37
74708;BME280;63360;50.104;8.074;2023-04-03T04:56:43;98139.13;;;0.97;93.69
74708;BME280;63360;50.104;8.074;2023-04-03T04:59:09;98151.63;;;1.05;95.23
74708;BME280;63360;50.104;8.074;2023-04-03T05:01:36;98161.75;;;1.00;94.74
74708;BME280;63360;50.104;8.074;2023-04-03T05:04:02;98163.28;;;1.01;93.99
74708;BME280;63360;50.104;8.074;2023-04-03T05:06:29;98155.72;;;0.95;95.78
74708;BME280;63360;50.104;8.074;2023-04-03T05:08:58;98161.28;;;0.92;94.74
74708;BME280;63360;50.104;8.074;2023-04-03T05:11:24;98158.16;;;0.90;95.68
74708;BME280;63360;50.104;8.074;2023-04-03T05:13:51;98156.81;;;0.87;95.63
74708;BME280;63360;50.104;8.074;2023-04-03T05:16:18;98161.81;;;0.82;94.98
74708;BME280;63360;50.104;8.074;2023-04-03T05:18:44;98165.59;;;0.80;96.27
74708;BME280;63360;50.104;8.074;2023-04-03T05:21:11;98164.75;;;0.68;95.10
74708;BME280;63360;50.104;8.074;2023-04-03T05:23:37;98165.91;;;0.72;95.36
74708;BME280;63360;50.104;8.074;2023-04-03T05:26:04;98174.63;;;0.64;93.37
74708;BME280;63360;50.104;8.074;2023-04-03T05:28:30;98174.44;;;0.66;94.17
74708;BME280;63360;50.104;8.074;2023-04-03T05:30:58;98182.25;;;0.71;92.00
74708;BME280;63360;50.104;8.074;2023-04-03T05:33:25;98181.09;;;0.67;93.21
74708;BME280;63360;50.104;8.074;2023-04-03T05:35:53;98187.78;;;0.68;93.94
74708;BME280;63360;50.104;8.074;2023-04-03T05:38:20;98189.06;;;0.77;93.97
74708;BME280;63360;50.104;8.074;2023-04-03T05:40:46;98194.66;;;0.85;94.11
74708;BME280;63360;50.104;8.074;2023-04-03T05:43:13;98176.59;;;0.80;92.89
74708;BME280;63360;50.104;8.074;2023-04-03T05:45:39;98196.16;;;0.93;92.99
74708;BME280;63360;50.104;8.074;2023-04-03T05:48:06;98199.16;;;1.01;92.04
74708;BME280;63360;50.104;8.074;2023-04-03T05:50:32;98191.81;;;1.05;91.63
74708;BME280;63360;50.104;8.074;2023-04-03T05:52:59;98198.66;;;1.22;91.09
74708;BME280;63360;50.104;8.074;2023-04-03T05:55:26;98202.72;;;1.30;89.87
74708;BME280;63360;50.104;8.074;2023-04-03T05:57:52;98210.59;;;1.17;87.72
74708;BME280;63360;50.104;8.074;2023-04-03T06:00:19;98200.78;;;1.14;93.06
74708;BME280;63360;50.104;8.074;2023-04-03T06:02:45;98207.25;;;1.16;92.61
74708;BME280;63360;50.104;8.074;2023-04-03T06:05:12;98203.28;;;1.02;90.81
74708;BME280;63360;50.104;8.074;2023-04-03T06:07:39;98199.38;;;1.00;91.21
74708;BME280;63360;50.104;8.074;2023-04-03T06:10:06;98212.97;;;1.00;90.78
74708;BME280;63360;50.104;8.074;2023-04-03T06:12:33;98218.09;;;1.00;91.17
74708;BME280;63360;50.104;8.074;2023-04-03T06:14:59;98221.53;;;0.94;91.87
74708;BME280;63360;50.104;8.074;2023-04-03T06:17:26;98222.13;;;1.08;89.44
74708;BME280;63360;50.104;8.074;2023-04-03T06:19:53;98223.00;;;1.02;89.72
74708;BME280;63360;50.104;8.074;2023-04-03T06:22:19;98229.03;;;1.07;92.10
74708;BME280;63360;50.104;8.074;2023-04-03T06:24:46;98236.28;;;1.10;91.56
74708;BME280;63360;50.104;8.074;2023-04-03T06:27:12;98240.13;;;1.19;91.67
74708;BME280;63360;50.104;8.074;2023-04-03T06:29:39;98239.28;;;1.37;91.42
74708;BME280;63360;50.104;8.074;2023-04-03T06:32:05;98239.75;;;1.46;89.60
74708;BME280;63360;50.104;8.074;2023-04-03T06:34:32;98241.56;;;1.57;88.32
74708;BME280;63360;50.104;8.074;2023-04-03T06:36:58;98229.81;;;1.49;86.86
74708;BME280;63360;50.104;8.074;2023-04-03T06:39:25;98234.94;;;1.49;87.32
74708;BME280;63360;50.104;8.074;2023-04-03T06:41:51;98255.25;;;1.62;87.19
74708;BME280;63360;50.104;8.074;2023-04-03T06:44:18;98248.69;;;1.66;87.01
74708;BME280;63360;50.104;8.074;2023-04-03T06:46:45;98243.25;;;1.74;83.65
74708;BME280;63360;50.104;8.074;2023-04-03T06:49:12;98248.94;;;1.65;85.57
74708;BME280;63360;50.104;8.074;2023-04-03T06:51:39;98250.94;;;1.74;82.48
74708;BME280;63360;50.104;8.074;2023-04-03T06:54:06;98253.69;;;1.61;84.60
74708;BME280;63360;50.104;8.074;2023-04-03T06:56:34;98254.53;;;1.97;86.79
74708;BME280;63360;50.104;8.074;2023-04-03T06:59:01;98251.13;;;2.54;83.87
74708;BME280;63360;50.104;8.074;2023-04-03T07:01:29;98270.41;;;3.08;82.11
74708;BME280;63360;50.104;8.074;2023-04-03T07:03:56;98263.88;;;3.17;78.20
74708;BME280;63360;50.104;8.074;2023-04-03T07:06:23;98263.22;;;3.83;76.63
74708;BME280;63360;50.104;8.074;2023-04-03T07:08:49;98260.47;;;3.90;75.72
74708;BME280;63360;50.104;8.074;2023-04-03T07:11:16;98251.19;;;4.65;69.31
74708;BME280;63360;50.104;8.074;2023-04-03T07:13:43;98267.66;;;4.64;74.59
74708;BME280;63360;50.104;8.074;2023-04-03T07:16:09;98268.88;;;4.78;73.31
74708;BME280;63360;50.104;8.074;2023-04-03T07:18:36;98266.13;;;5.12;67.29
74708;BME280;63360;50.104;8.074;2023-04-03T07:21:03;98265.34;;;5.11;70.32
74708;BME280;63360;50.104;8.074;2023-04-03T07:23:30;98270.38;;;5.81;63.58
74708;BME280;63360;50.104;8.074;2023-04-03T07:25:57;98273.91;;;5.43;67.92
74708;BME280;63360;50.104;8.074;2023-04-03T07:28:23;98267.50;;;5.19;67.69
74708;BME280;63360;50.104;8.074;2023-04-03T07:31:02;98267.63;;;5.29;66.93
74708;BME280;63360;50.104;8.074;2023-04-03T07:33:30;98273.91;;;5.43;66.78
74708;BME280;63360;50.104;8.074;2023-04-03T07:35:57;98279.22;;;5.85;65.14
74708;BME280;63360;50.104;8.074;2023-04-03T07:38:24;98275.03;;;5.53;65.32
74708;BME280;63360;50.104;8.074;2023-04-03T07:40:51;98271.34;;;5.75;64.85
74708;BME280;63360;50.104;8.074;2023-04-03T07:43:20;98273.28;;;6.22;64.09
74708;BME280;63360;50.104;8.074;2023-04-03T07:45:47;98286.03;;;6.38;60.59
74708;BME280;63360;50.104;8.074;2023-04-03T07:48:19;98290.03;;;6.61;59.87
74708;BME280;63360;50.104;8.074;2023-04-03T07:50:45;98287.06;;;6.37;59.89
74708;BME280;63360;50.104;8.074;2023-04-03T07:53:12;98289.69;;;6.05;64.77
74708;BME280;63360;50.104;8.074;2023-04-03T07:55:39;98285.22;;;6.28;63.93
74708;BME280;63360;50.104;8.074;2023-04-03T07:58:14;98300.63;;;6.59;63.00
74708;BME280;63360;50.104;8.074;2023-04-03T08:00:41;98291.44;;;5.95;63.13
74708;BME280;63360;50.104;8.074;2023-04-03T08:03:10;98293.22;;;6.31;62.62
74708;BME280;63360;50.104;8.074;2023-04-03T08:05:40;98290.41;;;6.33;61.04
74708;BME280;63360;50.104;8.074;2023-04-03T08:08:07;98298.72;;;6.45;61.96
74708;BME280;63360;50.104;8.074;2023-04-03T08:10:34;98291.22;;;6.01;61.26
74708;BME280;63360;50.104;8.074;2023-04-03T08:13:01;98297.41;;;6.00;64.65
74708;BME280;63360;50.104;8.074;2023-04-03T08:15:27;98294.13;;;6.52;60.20
74708;BME280;63360;50.104;8.074;2023-04-03T08:17:54;98289.38;;;6.39;63.33
74708;BME280;63360;50.104;8.074;2023-04-03T08:20:21;98292.59;;;6.14;60.57
74708;BME280;63360;50.104;8.074;2023-04-03T08:22:47;98293.59;;;6.50;61.50
74708;BME280;63360;50.104;8.074;2023-04-03T08:25:13;98292.63;;;6.19;62.10
74708;BME280;63360;50.104;8.074;2023-04-03T08:27:40;98301.59;;;6.06;59.01
74708;BME280;63360;50.104;8.074;2023-04-03T08:30:07;98301.28;;;5.71;63.90
74708;BME280;63360;50.104;8.074;2023-04-03T08:32:35;98299.59;;;5.28;64.31
74708;BME280;63360;50.104;8.074;2023-04-03T08:35:03;98297.19;;;5.22;65.94
74708;BME280;63360;50.104;8.074;2023-04-03T08:37:30;98300.63;;;5.59;62.92
74708;BME280;63360;50.104;8.074;2023-04-03T08:39:57;98288.13;;;5.73;61.40
74708;BME280;63360;50.104;8.074;2023-04-03T08:42:51;98300.16;;;5.62;62.96
74708;BME280;63360;50.104;8.074;2023-04-03T08:45:43;98294.56;;;6.02;61.62
74708;BME280;63360;50.104;8.074;2023-04-03T08:50:47;98297.09;;;6.29;63.03
74708;BME280;63360;50.104;8.074;2023-04-03T08:53:17;98300.81;;;6.48;59.99
74708;BME280;63360;50.104;8.074;2023-04-03T08:55:47;98302.53;;;5.95;59.11
74708;BME280;63360;50.104;8.074;2023-04-03T08:58:18;98310.69;;;5.29;61.77
74708;BME280;63360;50.104;8.074;2023-04-03T09:01:04;98301.16;;;5.29;61.99
74708;BME280;63360;50.104;8.074;2023-04-03T09:03:34;98305.75;;;5.54;60.76
74708;BME280;63360;50.104;8.074;2023-04-03T09:08:46;98305.34;;;5.67;61.71
74708;BME280;63360;50.104;8.074;2023-04-03T09:11:27;98311.94;;;5.26;60.54
74708;BME280;63360;50.104;8.074;2023-04-03T09:14:12;98305.72;;;5.49;62.38
74708;BME280;63360;50.104;8.074;2023-04-03T09:17:00;98312.38;;;5.98;62.27
74708;BME280;63360;50.104;8.074;2023-04-03T09:22:13;98296.16;;;6.50;60.35
74708;BME280;63360;50.104;8.074;2023-04-03T09:24:50;98297.16;;;6.02;62.39
74708;BME280;63360;50.104;8.074;2023-04-03T09:27:20;98302.47;;;6.22;56.92
74708;BME280;63360;50.104;8.074;2023-04-03T09:29:46;98297.84;;;5.34;58.77
74708;BME280;63360;50.104;8.074;2023-04-03T09:32:28;98299.00;;;4.78;62.46
74708;BME280;63360;50.104;8.074;2023-04-03T09:35:04;98299.91;;;4.88;62.04
74708;BME280;63360;50.104;8.074;2023-04-03T09:37:48;98290.59;;;4.44;60.69
74708;BME280;63360;50.104;8.074;2023-04-03T09:40:40;98296.63;;;4.33;61.85
74708;BME280;63360;50.104;8.074;2023-04-03T09:45:44;98284.78;;;3.65;65.11
74708;BME280;63360;50.104;8.074;2023-04-03T09:53:38;98295.63;;;4.17;67.51
74708;BME280;63360;50.104;8.074;2023-04-03T09:58:48;98298.13;;;3.79;65.79
74708;BME280;63360;50.104;8.074;2023-04-03T10:04:11;98295.63;;;4.01;67.65
74708;BME280;63360;50.104;8.074;2023-04-03T10:06:47;98298.56;;;4.26;67.70
74708;BME280;63360;50.104;8.074;2023-04-03T10:09:23;98306.19;;;4.54;63.93
74708;BME280;63360;50.104;8.074;2023-04-03T10:12:08;98290.84;;;4.26;66.27
74708;BME280;63360;50.104;8.074;2023-04-03T10:14:39;98296.25;;;4.24;65.46
74708;BME280;63360;50.104;8.074;2023-04-03T10:17:34;98294.22;;;4.10;68.72
74708;BME280;63360;50.104;8.074;2023-04-03T10:23:02;98282.28;;;3.87;68.96
74708;BME280;63360;50.104;8.074;2023-04-03T10:28:54;98297.03;;;4.08;66.76
74708;BME280;63360;50.104;8.074;2023-04-03T10:31:29;98289.38;;;3.97;67.03
74708;BME280;63360;50.104;8.074;2023-04-03T10:42:58;98291.97;;;3.80;66.91
74708;BME280;63360;50.104;8.074;2023-04-03T10:51:18;98291.41;;;3.78;66.85
74708;BME280;63360;50.104;8.074;2023-04-03T10:54:18;98293.03;;;3.51;68.64
74708;BME280;63360;50.104;8.074;2023-04-03T10:56:55;98286.03;;;3.63;66.35
74708;BME280;63360;50.104;8.074;2023-04-03T10:59:50;98292.16;;;3.62;70.13
74708;BME280;63360;50.104;8.074;2023-04-03T11:03:01;98292.50;;;3.65;66.61
74708;BME280;63360;50.104;8.074;2023-04-03T11:05:45;98285.41;;;3.73;68.39
74708;BME280;63360;50.104;8.074;2023-04-03T11:08:29;98280.50;;;3.71;69.04
74708;BME280;63360;50.104;8.074;2023-04-03T11:11:03;98269.44;;;3.54;69.90
74708;BME280;63360;50.104;8.074;2023-04-03T11:13:40;98271.50;;;3.57;68.40
74708;BME280;63360;50.104;8.074;2023-04-03T11:16:12;98276.56;;;3.52;66.43
74708;BME280;63360;50.104;8.074;2023-04-03T11:18:46;98287.34;;;3.65;67.35
74708;BME280;63360;50.104;8.074;2023-04-03T11:21:29;98267.59;;;3.54;67.69
74708;BME280;63360;50.104;8.074;2023-04-03T11:23:58;98271.13;;;3.65;67.95
74708;BME280;63360;50.104;8.074;2023-04-03T11:26:29;98267.63;;;3.71;66.01
74708;BME280;63360;50.104;8.074;2023-04-03T11:29:02;98267.63;;;3.71;64.88
74708;BME280;63360;50.104;8.074;2023-04-03T11:31:33;98270.69;;;3.85;65.87
74708;BME280;63360;50.104;8.074;2023-04-03T11:34:17;98274.72;;;3.81;66.29
74708;BME280;63360;50.104;8.074;2023-04-03T11:36:49;98269.09;;;3.84;65.06
74708;BME280;63360;50.104;8.074;2023-04-03T11:39:31;98265.75;;;4.00;64.05
74708;BME280;63360;50.104;8.074;2023-04-03T11:42:32;98269.50;;;3.92;65.19
74708;BME280;63360;50.104;8.074;2023-04-03T11:53:41;98258.03;;;4.00;61.29
74708;BME280;63360;50.104;8.074;2023-04-03T12:04:15;98226.59;;;4.14;59.07
74708;BME280;63360;50.104;8.074;2023-04-03T12:06:49;98240.84;;;4.22;62.94
74708;BME280;63360;50.104;8.074;2023-04-03T12:09:24;98224.56;;;4.38;61.10
74708;BME280;63360;50.104;8.074;2023-04-03T12:11:52;98230.31;;;4.45;59.66
74708;BME280;63360;50.104;8.074;2023-04-03T12:14:22;98233.50;;;4.52;61.47
74708;BME280;63360;50.104;8.074;2023-04-03T12:16:50;98226.00;;;4.51;57.17
74708;BME280;63360;50.104;8.074;2023-04-03T12:19:29;98235.31;;;4.52;59.04
74708;BME280;63360;50.104;8.074;2023-04-03T12:22:10;98229.38;;;4.51;58.42
74708;BME280;63360;50.104;8.074;2023-04-03T12:24:40;98222.41;;;4.73;57.07
74708;BME280;63360;50.104;8.074;2023-04-03T12:30:07;98219.28;;;4.71;60.27
74708;BME280;63360;50.104;8.074;2023-04-03T12:33:02;98218.16;;;4.84;55.68
74708;BME280;63360;50.104;8.074;2023-04-03T12:36:07;98217.69;;;4.65;57.33
74708;BME280;63360;50.104;8.074;2023-04-03T12:41:37;98212.06;;;4.47;59.24
74708;BME280;63360;50.104;8.074;2023-04-03T12:46:49;98204.91;;;4.54;60.09
74708;BME280;63360;50.104;8.074;2023-04-03T12:51:57;98219.53;;;4.48;55.21
74708;BME280;63360;50.104;8.074;2023-04-03T12:54:38;98194.91;;;4.36;56.57
74708;BME280;63360;50.104;8.074;2023-04-03T12:59:38;98207.97;;;4.51;54.61
74708;BME280;63360;50.104;8.074;2023-04-03T13:02:17;98200.31;;;4.56;53.10
74708;BME280;63360;50.104;8.074;2023-04-03T13:04:46;98202.59;;;4.52;56.34
74708;BME280;63360;50.104;8.074;2023-04-03T13:07:25;98200.66;;;4.43;56.96
74708;BME280;63360;50.104;8.074;2023-04-03T13:09:56;98202.72;;;4.62;57.17
74708;BME280;63360;50.104;8.074;2023-04-03T13:12:23;98191.72;;;4.72;57.19
74708;BME280;63360;50.104;8.074;2023-04-03T13:14:58;98207.91;;;4.67;55.94
74708;BME280;63360;50.104;8.074;2023-04-03T13:17:25;98194.88;;;4.52;56.24
74708;BME280;63360;50.104;8.074;2023-04-03T13:19:52;98199.19;;;4.47;57.53
74708;BME280;63360;50.104;8.074;2023-04-03T13:22:33;98210.38;;;4.57;57.44
74708;BME280;63360;50.104;8.074;2023-04-03T13:25:06;98203.41;;;4.58;57.36
74708;BME280;63360;50.104;8.074;2023-04-03T13:27:34;98206.50;;;4.55;57.64
74708;BME280;63360;50.104;8.074;2023-04-03T13:30:03;98194.03;;;4.47;57.99
74708;BME280;63360;50.104;8.074;2023-04-03T13:32:36;98198.50;;;4.56;54.55
74708;BME280;63360;50.104;8.074;2023-04-03T13:37:57;98198.19;;;4.53;52.45
74708;BME280;63360;50.104;8.074;2023-04-03T13:40:24;98188.41;;;4.50;54.57
74708;BME280;63360;50.104;8.074;2023-04-03T13:43:17;98196.94;;;4.55;53.04
74708;BME280;63360;50.104;8.074;2023-04-03T13:46:00;98187.66;;;4.54;55.56
74708;BME280;63360;50.104;8.074;2023-04-03T13:48:36;98200.78;;;4.53;54.29
74708;BME280;63360;50.104;8.074;2023-04-03T13:51:17;98187.25;;;4.41;55.89
74708;BME280;63360;50.104;8.074;2023-04-03T13:54:16;98176.63;;;4.37;56.60
74708;BME280;63360;50.104;8.074;2023-04-03T13:56:34;98183.72;;;4.47;57.29
74708;BME280;63360;50.104;8.074;2023-04-03T14:04:26;98188.19;;;4.56;51.58
74708;BME280;63360;50.104;8.074;2023-04-03T14:06:54;98178.44;;;4.58;51.74
74708;BME280;63360;50.104;8.074;2023-04-03T14:09:23;98177.25;;;4.44;54.26
74708;BME280;63360;50.104;8.074;2023-04-03T14:11:54;98183.94;;;4.45;55.84
74708;BME280;63360;50.104;8.074;2023-04-03T14:14:26;98176.00;;;4.47;54.17
74708;BME280;63360;50.104;8.074;2023-04-03T14:16:56;98163.88;;;4.47;50.63
74708;BME280;63360;50.104;8.074;2023-04-03T14:19:26;98163.44;;;4.55;52.92
74708;BME280;63360;50.104;8.074;2023-04-03T14:21:54;98179.69;;;4.56;52.15
74708;BME280;63360;50.104;8.074;2023-04-03T14:24:22;98174.53;;;4.56;54.15
74708;BME280;63360;50.104;8.074;2023-04-03T14:26:51;98170.03;;;4.68;51.02
74708;BME280;63360;50.104;8.074;2023-04-03T14:29:19;98160.78;;;4.72;51.88
74708;BME280;63360;50.104;8.074;2023-04-03T14:31:47;98168.16;;;4.63;53.86
74708;BME280;63360;50.104;8.074;2023-04-03T14:34:17;98154.22;;;4.59;52.91
74708;BME280;63360;50.104;8.074;2023-04-03T14:36:44;98162.00;;;4.64;51.87
74708;BME280;63360;50.104;8.074;2023-04-03T14:39:16;98158.84;;;4.57;53.43
74708;BME280;63360;50.104;8.074;2023-04-03T14:41:44;98149.03;;;4.54;53.40
74708;BME280;63360;50.104;8.074;2023-04-03T14:44:11;98155.00;;;4.60;52.87
74708;BME280;63360;50.104;8.074;2023-04-03T14:46:41;98157.53;;;4.55;54.53
74708;BME280;63360;50.104;8.074;2023-04-03T14:49:25;98158.50;;;4.49;53.81
74708;BME280;63360;50.104;8.074;2023-04-03T14:51:52;98163.41;;;4.50;54.39
74708;BME280;63360;50.104;8.074;2023-04-03T14:54:21;98165.06;;;4.61;52.89
74708;BME280;63360;50.104;8.074;2023-04-03T14:56:52;98162.19;;;4.58;53.03
74708;BME280;63360;50.104;8.074;2023-04-03T14:59:18;98148.72;;;4.51;52.99